Phippsburg, Maine
Current Conditions -  °F | °C
As of 5:37 PM on Tuesday 21 Oct 2014 (Local Time) from KIWI Reporting Station
Light Rain Light Rain  
Wind Chill: 52°   Ceiling: 500
Heat Index: 52°   Visibility: 3mi
Dew Point: 51°   Wind: 0mph
Humidity: 97%   Direction: NA
Pressure: 30.03"   Gusts: NA
Location:  43.82°N, 69.82°W
Report Text: KIWI 212137Z AUTO 00000KT 3SM -RA BR OVC005 11/11 A3003 RMK AO2 RAE16B28 CIG 004V010 P0015 T01110106
Loading
Personal Weather Stations






























Interactive Weather Map
Tropical Storm Tracking
New forecast layout! Learn more

10-Day Weather Forecast

Advertisements
Track Severe Weather on mobile